M/V Grande Caribe — WCX4495 — position and weather

sailwx.info

Track history (hours):
 
Tides and Currents Weather Stations Pressure Air Temp Water Temp Dewpoint Dewpoint Depression Visibility Wind Speed Wind Dir Waves Ship Positions

M/V Grande Caribe

More information available from US FCC via Universal Licensing System and Coast Guard Vessel Documentation Center.

Last reported at 2014-Jul-30 10:32 UTC. Time now 2014-Jul-30 11:12 UTC.
Position N 40°48' W 073°59'.

Length 55 m; draft 2.1 m.

Type: Passenger vessel. MMSI: 369023000.

Date/timePositionNaut miles runAvg speedWind from/ knotsBaromVisibWave heightAir tempDewpointWater temp
2014-Jul-30 10:32N 40°48' W 073°59'7 7.1
2014-Jul-30 09:34N 40°41' W 074°02'19 9.3
2014-Jul-30 07:33N 40°53' W 073°43'10 9.8
2014-Jul-30 06:33N 40°58' W 073°32'1010.0
2014-Jul-30 05:33N 41°01' W 073°19'1010.3
2014-Jul-30 04:33N 41°03' W 073°06'1110.7
2014-Jul-30 03:34N 41°06' W 072°52'1110.7
2014-Jul-30 02:34N 41°08' W 072°38'1111.1
2014-Jul-30 01:33N 41°11' W 072°24'1010.3
2014-Jul-30 00:34N 41°13' W 072°11'9 9.1
2014-Jul-29 23:34N 41°14' W 071°59'9 9.3
2014-Jul-29 22:34N 41°16' W 071°47'9 9.0
2014-Jul-29 21:33N 41°18' W 071°35'8 8.5
2014-Jul-29 20:34N 41°23' W 071°26'9 9.4
2014-Jul-29 19:33N 41°31' W 071°20'10 9.9
2014-Jul-29 18:33N 41°41' W 071°18'2 2.4
2014-Jul-29 17:33N 41°43' W 071°17'0 0.0
2014-Jul-29 16:33N 41°43' W 071°17'0 0.0
2014-Jul-29 15:33N 41°43' W 071°17'0 0.0
2014-Jul-29 14:33N 41°43' W 071°17'0 0.0
2014-Jul-29 13:33N 41°43' W 071°17'0 0.0
2014-Jul-29 12:33N 41°43' W 071°17'0 0.0
2014-Jul-28 14:33N 41°43' W 071°17'0 0.0
2014-Jul-28 13:33N 41°43' W 071°17'0 0.0
2014-Jul-28 12:33N 41°43' W 071°17'0 0.0
2014-Jul-28 11:33N 41°43' W 071°17'0 0.0
2014-Jul-28 10:33N 41°43' W 071°17'0 0.0
2014-Jul-28 09:33N 41°43' W 071°17'0 0.0
2014-Jul-28 08:33N 41°43' W 071°17'0 0.0
2014-Jul-28 07:33N 41°43' W 071°17'0 0.0
2014-Jul-28 06:33N 41°43' W 071°17'0 0.0
2014-Jul-28 05:33N 41°43' W 071°17'0 0.0
2014-Jul-28 04:33N 41°43' W 071°17'0 0.0
2014-Jul-28 03:19N 41°43' W 071°17'0 0.0
2014-Jul-28 02:32N 41°43' W 071°17'0 0.0
2014-Jul-28 01:32N 41°43' W 071°17'0 0.0
2014-Jul-28 00:33N 41°43' W 071°17'0 0.0
2014-Jul-27 19:27N 41°43' W 071°17'0 0.0
2014-Jul-27 18:32N 41°43' W 071°17'0 0.0
2014-Jul-27 17:33N 41°43' W 071°17'0 0.0
2014-Jul-27 16:33N 41°43' W 071°17'0 0.0
2014-Jul-27 15:33N 41°43' W 071°17'0 0.0
2014-Jul-27 14:32N 41°43' W 071°17'0 0.0
2014-Jul-27 13:33N 41°43' W 071°17'0 0.0
2014-Jul-27 12:33N 41°43' W 071°17'0 0.0
2014-Jul-27 11:33N 41°43' W 071°17'0 0.0
2014-Jul-27 10:33N 41°43' W 071°17'0 0.0
2014-Jul-27 09:33N 41°43' W 071°17'0 0.0
2014-Jul-27 08:33N 41°43' W 071°17'0 0.0
2014-Jul-27 07:33N 41°43' W 071°17'0 0.0
2014-Jul-27 06:33N 41°43' W 071°17'0 0.0
2014-Jul-27 05:33N 41°43' W 071°17'0 0.0
2014-Jul-27 04:33N 41°43' W 071°17'0 0.0
2014-Jul-27 03:33N 41°43' W 071°17'0 0.0
2014-Jul-27 02:33N 41°43' W 071°17'0 0.0
2014-Jul-27 01:33N 41°43' W 071°17'0 0.0
2014-Jul-27 00:33N 41°43' W 071°17'0 0.0
2014-Jul-26 22:21N 41°43' W 071°17'0 0.0
2014-Jul-26 21:33N 41°43' W 071°17'0 0.0
2014-Jul-26 20:33N 41°43' W 071°17'0 0.0
2014-Jul-26 19:33N 41°43' W 071°17'0 0.0
2014-Jul-26 18:32N 41°43' W 071°17'0 0.0
2014-Jul-26 17:33N 41°43' W 071°17'0 0.0
2014-Jul-26 16:23N 41°43' W 071°17'0 0.0
2014-Jul-26 15:28N 41°43' W 071°17'0 0.0
2014-Jul-26 13:29N 41°43' W 071°17'0 0.0
2014-Jul-26 12:33N 41°43' W 071°17'0 0.0
2014-Jul-26 11:33N 41°43' W 071°17'0 0.0
2014-Jul-26 10:33N 41°43' W 071°17'0 0.0
2014-Jul-26 09:33N 41°43' W 071°17'0 0.0
2014-Jul-26 08:33N 41°43' W 071°17'0 0.0
2014-Jul-26 07:33N 41°43' W 071°17'0 0.0
2014-Jul-26 06:33N 41°43' W 071°17'0 0.0
2014-Jul-26 05:33N 41°43' W 071°17'0 0.0
2014-Jul-26 04:33N 41°43' W 071°17'0 0.0
2014-Jul-26 03:33N 41°43' W 071°17'0 0.0
2014-Jul-26 02:33N 41°43' W 071°17'0 0.0
2014-Jul-26 01:33N 41°43' W 071°17'0 0.0
2014-Jul-26 00:33N 41°43' W 071°17'0 0.0
2014-Jul-25 23:33N 41°43' W 071°17'0 0.0
2014-Jul-25 22:33N 41°43' W 071°17'0 0.0
2014-Jul-25 21:30N 41°43' W 071°17'0 0.0
2014-Jul-25 16:15N 41°43' W 071°17'0 0.0
2014-Jul-25 15:33N 41°43' W 071°17'0 0.0
2014-Jul-25 14:33N 41°43' W 071°17'0 0.0
2014-Jul-25 13:33N 41°43' W 071°17'0 0.0
2014-Jul-25 12:33N 41°43' W 071°17'0 0.0
2014-Jul-25 11:33N 41°43' W 071°17'0 0.0
2014-Jul-25 10:33N 41°43' W 071°17'0 0.0
2014-Jul-25 09:33N 41°43' W 071°17'0 0.0
2014-Jul-25 08:33N 41°43' W 071°17'0 0.0
2014-Jul-25 07:33N 41°43' W 071°17'0 0.0
2014-Jul-25 06:33N 41°43' W 071°17'0 0.0
2014-Jul-25 05:33N 41°43' W 071°17'0 0.0
2014-Jul-25 04:33N 41°43' W 071°17'0 0.0
2014-Jul-25 03:33N 41°43' W 071°17'0 0.0
2014-Jul-25 02:33N 41°43' W 071°17'0 0.0
2014-Jul-25 01:33N 41°43' W 071°17'0 0.0
2014-Jul-24 23:33N 41°43' W 071°17'0 0.0
2014-Jul-24 22:33N 41°43' W 071°17'0 0.0
2014-Jul-24 17:25N 41°43' W 071°17'0 0.0
2014-Jul-24 16:33N 41°43' W 071°17'0 0.0
2014-Jul-24 15:33N 41°43' W 071°17'0 0.0
2014-Jul-24 14:33N 41°43' W 071°17'0 0.0
2014-Jul-24 13:33N 41°43' W 071°17'0 0.0
2014-Jul-24 12:33N 41°43' W 071°17'6 5.9
2014-Jul-24 11:33N 41°38' W 071°18'9 2.9
2014-Jul-24 08:29N 41°29' W 071°20'0 0.0
2014-Jul-24 06:33N 41°29' W 071°20'0 0.0
2014-Jul-24 05:33N 41°29' W 071°20'0 0.0
2014-Jul-24 04:28N 41°29' W 071°20'0 0.0
2014-Jul-24 03:03N 41°29' W 071°20'0 0.0
2014-Jul-24 02:28N 41°29' W 071°20'0 0.0
2014-Jul-24 01:29N 41°29' W 071°20'0 0.0
2014-Jul-24 00:27N 41°29' W 071°20'0 0.0
2014-Jul-23 23:08N 41°29' W 071°20'0 0.0
2014-Jul-23 22:32N 41°29' W 071°20'0 0.0
2014-Jul-23 21:33N 41°29' W 071°20'0 0.0
2014-Jul-23 20:23N 41°29' W 071°20'0 0.0
2014-Jul-23 19:20N 41°29' W 071°20'0 0.0
2014-Jul-23 15:21N 41°29' W 071°20'0 0.0
2014-Jul-23 11:18N 41°29' W 071°20'0 0.0
2014-Jul-23 09:33N 41°29' W 071°20'0 0.0
2014-Jul-23 08:29N 41°29' W 071°20'0 0.0
2014-Jul-23 07:05N 41°29' W 071°20'0 0.0
2014-Jul-23 06:14N 41°29' W 071°20'0 0.0
2014-Jul-23 05:15N 41°29' W 071°20'0 0.0
2014-Jul-23 04:32N 41°29' W 071°20'0 0.0
2014-Jul-23 03:32N 41°29' W 071°20'0 0.0
2014-Jul-23 02:05N 41°29' W 071°20'0 0.0
2014-Jul-23 01:30N 41°29' W 071°20'0 0.0
2014-Jul-23 00:17N 41°29' W 071°20'4 5.3
2014-Jul-22 23:33N 41°25' W 071°22'10 9.6
2014-Jul-22 22:33N 41°19' W 071°32'8 8.3
2014-Jul-22 21:33N 41°11' W 071°35'0 0.0
2014-Jul-22 20:33N 41°11' W 071°35'0 0.0
2014-Jul-22 19:33N 41°11' W 071°35'0 0.0
2014-Jul-22 18:33N 41°11' W 071°35'0 0.0
2014-Jul-22 17:33N 41°11' W 071°35'0 0.0
2014-Jul-22 16:33N 41°11' W 071°35'0 0.0
2014-Jul-22 15:28N 41°11' W 071°35'0 0.0
2014-Jul-22 14:33N 41°11' W 071°35'0 0.0
2014-Jul-22 13:33N 41°11' W 071°35'0 0.0
2014-Jul-22 12:33N 41°11' W 071°35'6 5.9
2014-Jul-22 11:33N 41°16' W 071°31'1110.7
2014-Jul-22 10:33N 41°19' W 071°17'1010.4
2014-Jul-22 09:33N 41°24' W 071°05'10 9.8
2014-Jul-22 08:33N 41°29' W 070°54'8 7.6
2014-Jul-22 07:32N 41°37' W 070°54'  
Track history (hours):
 
Tides and Currents Weather Stations Pressure Air Temp Water Temp Dewpoint Dewpoint Depression Visibility Wind Speed Wind Dir Waves Ship Positions

M/V Grande Caribe

More information available from US FCC via Universal Licensing System and Coast Guard Vessel Documentation Center.

Last reported at 2014-Jul-30 10:32 UTC. Time now 2014-Jul-30 11:12 UTC.
Position N 40°48' W 073°59'.

Length 55 m; draft 2.1 m.

Type: Passenger vessel. MMSI: 369023000.

Date/timePositionNaut miles runAvg speedWind from/ knotsBaromVisibWave heightAir tempDewpointWater temp
2014-Jul-30 10:32N 40°48' W 073°59'7 7.1
2014-Jul-30 09:34N 40°41' W 074°02'19 9.3
2014-Jul-30 07:33N 40°53' W 073°43'10 9.8
2014-Jul-30 06:33N 40°58' W 073°32'1010.0
2014-Jul-30 05:33N 41°01' W 073°19'1010.3
2014-Jul-30 04:33N 41°03' W 073°06'1110.7
2014-Jul-30 03:34N 41°06' W 072°52'1110.7
2014-Jul-30 02:34N 41°08' W 072°38'1111.1
2014-Jul-30 01:33N 41°11' W 072°24'1010.3
2014-Jul-30 00:34N 41°13' W 072°11'9 9.1
2014-Jul-29 23:34N 41°14' W 071°59'9 9.3
2014-Jul-29 22:34N 41°16' W 071°47'9 9.0
2014-Jul-29 21:33N 41°18' W 071°35'8 8.5
2014-Jul-29 20:34N 41°23' W 071°26'9 9.4
2014-Jul-29 19:33N 41°31' W 071°20'10 9.9
2014-Jul-29 18:33N 41°41' W 071°18'2 2.4
2014-Jul-29 17:33N 41°43' W 071°17'0 0.0
2014-Jul-29 16:33N 41°43' W 071°17'0 0.0
2014-Jul-29 15:33N 41°43' W 071°17'0 0.0
2014-Jul-29 14:33N 41°43' W 071°17'0 0.0
2014-Jul-29 13:33N 41°43' W 071°17'0 0.0
2014-Jul-29 12:33N 41°43' W 071°17'0 0.0
2014-Jul-28 14:33N 41°43' W 071°17'0 0.0
2014-Jul-28 13:33N 41°43' W 071°17'0 0.0
2014-Jul-28 12:33N 41°43' W 071°17'0 0.0
2014-Jul-28 11:33N 41°43' W 071°17'0 0.0
2014-Jul-28 10:33N 41°43' W 071°17'0 0.0
2014-Jul-28 09:33N 41°43' W 071°17'0 0.0
2014-Jul-28 08:33N 41°43' W 071°17'0 0.0
2014-Jul-28 07:33N 41°43' W 071°17'0 0.0
2014-Jul-28 06:33N 41°43' W 071°17'0 0.0
2014-Jul-28 05:33N 41°43' W 071°17'0 0.0
2014-Jul-28 04:33N 41°43' W 071°17'0 0.0
2014-Jul-28 03:19N 41°43' W 071°17'0 0.0
2014-Jul-28 02:32N 41°43' W 071°17'0 0.0
2014-Jul-28 01:32N 41°43' W 071°17'0 0.0
2014-Jul-28 00:33N 41°43' W 071°17'0 0.0
2014-Jul-27 19:27N 41°43' W 071°17'0 0.0
2014-Jul-27 18:32N 41°43' W 071°17'0 0.0
2014-Jul-27 17:33N 41°43' W 071°17'0 0.0
2014-Jul-27 16:33N 41°43' W 071°17'0 0.0
2014-Jul-27 15:33N 41°43' W 071°17'0 0.0
2014-Jul-27 14:32N 41°43' W 071°17'0 0.0
2014-Jul-27 13:33N 41°43' W 071°17'0 0.0
2014-Jul-27 12:33N 41°43' W 071°17'0 0.0
2014-Jul-27 11:33N 41°43' W 071°17'0 0.0
2014-Jul-27 10:33N 41°43' W 071°17'0 0.0
2014-Jul-27 09:33N 41°43' W 071°17'0 0.0
2014-Jul-27 08:33N 41°43' W 071°17'0 0.0
2014-Jul-27 07:33N 41°43' W 071°17'0 0.0
2014-Jul-27 06:33N 41°43' W 071°17'0 0.0
2014-Jul-27 05:33N 41°43' W 071°17'0 0.0
2014-Jul-27 04:33N 41°43' W 071°17'0 0.0
2014-Jul-27 03:33N 41°43' W 071°17'0 0.0
2014-Jul-27 02:33N 41°43' W 071°17'0 0.0
2014-Jul-27 01:33N 41°43' W 071°17'0 0.0
2014-Jul-27 00:33N 41°43' W 071°17'0 0.0
2014-Jul-26 22:21N 41°43' W 071°17'0 0.0
2014-Jul-26 21:33N 41°43' W 071°17'0 0.0
2014-Jul-26 20:33N 41°43' W 071°17'0 0.0
2014-Jul-26 19:33N 41°43' W 071°17'0 0.0
2014-Jul-26 18:32N 41°43' W 071°17'0 0.0
2014-Jul-26 17:33N 41°43' W 071°17'0 0.0
2014-Jul-26 16:23N 41°43' W 071°17'0 0.0
2014-Jul-26 15:28N 41°43' W 071°17'0 0.0
2014-Jul-26 13:29N 41°43' W 071°17'0 0.0
2014-Jul-26 12:33N 41°43' W 071°17'0 0.0
2014-Jul-26 11:33N 41°43' W 071°17'0 0.0
2014-Jul-26 10:33N 41°43' W 071°17'0 0.0
2014-Jul-26 09:33N 41°43' W 071°17'0 0.0
2014-Jul-26 08:33N 41°43' W 071°17'0 0.0
2014-Jul-26 07:33N 41°43' W 071°17'0 0.0
2014-Jul-26 06:33N 41°43' W 071°17'0 0.0
2014-Jul-26 05:33N 41°43' W 071°17'0 0.0
2014-Jul-26 04:33N 41°43' W 071°17'0 0.0
2014-Jul-26 03:33N 41°43' W 071°17'0 0.0
2014-Jul-26 02:33N 41°43' W 071°17'0 0.0
2014-Jul-26 01:33N 41°43' W 071°17'0 0.0
2014-Jul-26 00:33N 41°43' W 071°17'0 0.0
2014-Jul-25 23:33N 41°43' W 071°17'0 0.0
2014-Jul-25 22:33N 41°43' W 071°17'0 0.0
2014-Jul-25 21:30N 41°43' W 071°17'0 0.0
2014-Jul-25 16:15N 41°43' W 071°17'0 0.0
2014-Jul-25 15:33N 41°43' W 071°17'0 0.0
2014-Jul-25 14:33N 41°43' W 071°17'0 0.0
2014-Jul-25 13:33N 41°43' W 071°17'0 0.0
2014-Jul-25 12:33N 41°43' W 071°17'0 0.0
2014-Jul-25 11:33N 41°43' W 071°17'0 0.0
2014-Jul-25 10:33N 41°43' W 071°17'0 0.0
2014-Jul-25 09:33N 41°43' W 071°17'0 0.0
2014-Jul-25 08:33N 41°43' W 071°17'0 0.0
2014-Jul-25 07:33N 41°43' W 071°17'0 0.0
2014-Jul-25 06:33N 41°43' W 071°17'0 0.0
2014-Jul-25 05:33N 41°43' W 071°17'0 0.0
2014-Jul-25 04:33N 41°43' W 071°17'0 0.0
2014-Jul-25 03:33N 41°43' W 071°17'0 0.0
2014-Jul-25 02:33N 41°43' W 071°17'0 0.0
2014-Jul-25 01:33N 41°43' W 071°17'0 0.0
2014-Jul-24 23:33N 41°43' W 071°17'0 0.0
2014-Jul-24 22:33N 41°43' W 071°17'0 0.0
2014-Jul-24 17:25N 41°43' W 071°17'0 0.0
2014-Jul-24 16:33N 41°43' W 071°17'0 0.0
2014-Jul-24 15:33N 41°43' W 071°17'0 0.0
2014-Jul-24 14:33N 41°43' W 071°17'0 0.0
2014-Jul-24 13:33N 41°43' W 071°17'0 0.0
2014-Jul-24 12:33N 41°43' W 071°17'6 5.9
2014-Jul-24 11:33N 41°38' W 071°18'9 2.9
2014-Jul-24 08:29N 41°29' W 071°20'0 0.0
2014-Jul-24 06:33N 41°29' W 071°20'0 0.0
2014-Jul-24 05:33N 41°29' W 071°20'0 0.0
2014-Jul-24 04:28N 41°29' W 071°20'0 0.0
2014-Jul-24 03:03N 41°29' W 071°20'0 0.0
2014-Jul-24 02:28N 41°29' W 071°20'0 0.0
2014-Jul-24 01:29N 41°29' W 071°20'0 0.0
2014-Jul-24 00:27N 41°29' W 071°20'0 0.0
2014-Jul-23 23:08N 41°29' W 071°20'0 0.0
2014-Jul-23 22:32N 41°29' W 071°20'0 0.0
2014-Jul-23 21:33N 41°29' W 071°20'0 0.0
2014-Jul-23 20:23N 41°29' W 071°20'0 0.0
2014-Jul-23 19:20N 41°29' W 071°20'0 0.0
2014-Jul-23 15:21N 41°29' W 071°20'0 0.0
2014-Jul-23 11:18N 41°29' W 071°20'0 0.0
2014-Jul-23 09:33N 41°29' W 071°20'0 0.0
2014-Jul-23 08:29N 41°29' W 071°20'0 0.0
2014-Jul-23 07:05N 41°29' W 071°20'0 0.0
2014-Jul-23 06:14N 41°29' W 071°20'0 0.0
2014-Jul-23 05:15N 41°29' W 071°20'0 0.0
2014-Jul-23 04:32N 41°29' W 071°20'0 0.0
2014-Jul-23 03:32N 41°29' W 071°20'0 0.0
2014-Jul-23 02:05N 41°29' W 071°20'0 0.0
2014-Jul-23 01:30N 41°29' W 071°20'0 0.0
2014-Jul-23 00:17N 41°29' W 071°20'4 5.3
2014-Jul-22 23:33N 41°25' W 071°22'10 9.6
2014-Jul-22 22:33N 41°19' W 071°32'8 8.3
2014-Jul-22 21:33N 41°11' W 071°35'0 0.0
2014-Jul-22 20:33N 41°11' W 071°35'0 0.0
2014-Jul-22 19:33N 41°11' W 071°35'0 0.0
2014-Jul-22 18:33N 41°11' W 071°35'0 0.0
2014-Jul-22 17:33N 41°11' W 071°35'0 0.0
2014-Jul-22 16:33N 41°11' W 071°35'0 0.0
2014-Jul-22 15:28N 41°11' W 071°35'0 0.0
2014-Jul-22 14:33N 41°11' W 071°35'0 0.0
2014-Jul-22 13:33N 41°11' W 071°35'0 0.0
2014-Jul-22 12:33N 41°11' W 071°35'6 5.9
2014-Jul-22 11:33N 41°16' W 071°31'1110.7
2014-Jul-22 10:33N 41°19' W 071°17'1010.4
2014-Jul-22 09:33N 41°24' W 071°05'10 9.8
2014-Jul-22 08:33N 41°29' W 070°54'8 7.6
2014-Jul-22 07:32N 41°37' W 070°54'  

Dump ship's entire track history